createdAt,value
2023-02-01T00:00:38.682Z,100779.81
2023-02-01T00:03:41.983Z,100776.22
2023-02-01T00:06:46.368Z,100786.00
2023-02-01T00:09:49.413Z,100783.34
2023-02-01T00:12:52.664Z,100778.78
2023-02-01T00:15:55.610Z,100776.09
2023-02-01T00:19:02.962Z,100769.84
2023-02-01T00:22:07.451Z,100773.53
2023-02-01T00:25:10.961Z,100783.25
2023-02-01T00:28:14.849Z,100773.28
2023-02-01T00:31:18.110Z,100753.88
2023-02-01T00:34:21.766Z,100774.28
2023-02-01T00:37:26.196Z,100777.75
2023-02-01T00:40:29.297Z,100779.56
2023-02-01T00:43:33.232Z,100782.28
2023-02-01T00:46:37.861Z,100789.44
2023-02-01T00:49:41.201Z,100768.16
2023-02-01T00:52:45.581Z,100789.50
2023-02-01T00:55:49.294Z,100792.13
2023-02-01T00:58:52.615Z,100784.03
2023-02-01T01:01:55.787Z,100781.38
2023-02-01T01:04:59.259Z,100790.25
2023-02-01T01:08:03.319Z,100794.81
2023-02-01T01:11:08.040Z,100797.44
2023-02-01T01:14:11.545Z,100796.59
2023-02-01T01:17:14.184Z,100794.97
2023-02-01T01:20:17.671Z,100794.16
2023-02-01T01:23:21.679Z,100804.84
2023-02-01T01:26:26.803Z,100800.56
2023-02-01T01:29:29.611Z,100795.19
2023-02-01T01:32:32.261Z,100789.81
2023-02-01T01:35:35.409Z,100774.66
2023-02-01T01:38:39.968Z,100785.41
2023-02-01T01:41:42.625Z,100771.97
2023-02-01T01:45:04.723Z,100775.63
2023-02-01T01:48:11.693Z,100768.38
2023-02-01T01:51:19.241Z,100757.53
2023-02-01T01:54:30.897Z,100743.22
2023-02-01T01:57:37.608Z,100735.06
2023-02-01T02:00:41.815Z,100727.91
2023-02-01T02:03:46.515Z,100726.97
2023-02-01T02:06:56.570Z,100713.41
2023-02-01T02:10:01.597Z,100719.63
2023-02-01T02:13:04.512Z,100709.75
2023-02-01T02:16:38.674Z,100723.09
2023-02-01T02:20:12.456Z,100707.84
2023-02-01T02:23:46.879Z,100716.75
2023-02-01T02:27:23.858Z,100714.97
2023-02-01T02:31:01.849Z,100718.59
2023-02-01T02:34:16.946Z,100707.91
2023-02-01T02:37:28.765Z,100700.63
2023-02-01T02:40:38.888Z,100690.75
2023-02-01T02:44:05.653Z,100688.03
2023-02-01T02:47:28.638Z,100664.88
2023-02-01T02:50:56.577Z,100670.06
2023-02-01T02:54:27.179Z,100680.75
2023-02-01T02:57:51.579Z,100681.72
2023-02-01T03:01:12.859Z,100668.34
2023-02-01T03:04:19.014Z,100679.94
2023-02-01T03:07:55.416Z,100672.84
2023-02-01T03:11:02.057Z,100684.44
2023-02-01T03:14:07.438Z,100682.50
2023-02-01T03:17:16.591Z,100689.00
2023-02-01T03:20:21.911Z,100685.53
2023-02-01T03:23:32.401Z,100667.59
2023-02-01T03:26:39.699Z,100672.94
2023-02-01T03:29:47.760Z,100677.31
2023-02-01T03:33:00.095Z,100684.53
2023-02-01T03:36:11.843Z,100681.00
2023-02-01T03:39:19.624Z,100685.34
2023-02-01T03:42:29.412Z,100681.03
2023-02-01T03:45:40.077Z,100685.25
2023-02-01T03:48:43.434Z,100699.09
2023-02-01T03:51:46.370Z,100699.03
2023-02-01T03:54:51.659Z,100707.94
2023-02-01T03:57:59.075Z,100709.34
2023-02-01T04:01:02.158Z,100714.91
2023-02-01T04:04:05.329Z,100725.19
2023-02-01T04:07:08.110Z,100745.78
2023-02-01T04:10:13.925Z,100758.38
2023-02-01T04:13:16.714Z,100751.56
2023-02-01T04:16:19.417Z,100753.03
2023-02-01T04:19:22.130Z,100746.31
2023-02-01T04:22:25.005Z,100732.94
2023-02-01T04:25:29.032Z,100729.28
2023-02-01T04:28:32.356Z,100725.63
2023-02-01T04:31:37.522Z,100729.19
2023-02-01T04:34:40.286Z,100716.66
2023-02-01T04:37:42.929Z,100719.25
2023-02-01T04:40:49.323Z,100716.66
2023-02-01T04:43:53.450Z,100707.75
2023-02-01T04:46:56.175Z,100706.09
2023-02-01T04:49:58.804Z,100702.47
2023-02-01T04:53:01.872Z,100692.78
2023-02-01T04:56:07.340Z,100696.16
2023-02-01T04:59:13.672Z,100690.78
2023-02-01T05:02:16.767Z,100704.06
2023-02-01T05:05:19.457Z,100706.56
2023-02-01T05:08:23.708Z,100705.81
2023-02-01T05:11:45.079Z,100709.50
2023-02-01T05:14:48.791Z,100700.59
2023-02-01T05:17:51.438Z,100696.00
2023-02-01T05:20:54.151Z,100688.84
2023-02-01T05:24:13.795Z,100698.66
2023-02-01T05:27:17.841Z,100696.00
2023-02-01T05:30:20.823Z,100696.84
2023-02-01T05:33:24.346Z,100702.16
2023-02-01T05:36:27.623Z,100689.59
2023-02-01T05:39:30.323Z,100703.88
2023-02-01T05:42:34.375Z,100683.22
2023-02-01T05:45:37.067Z,100683.31
2023-02-01T05:48:39.776Z,100669.91
2023-02-01T05:51:42.427Z,100672.59
2023-02-01T05:54:45.095Z,100669.00
2023-02-01T05:57:49.136Z,100684.22
2023-02-01T06:00:52.011Z,100677.06
2023-02-01T06:03:54.726Z,100685.91
2023-02-01T06:06:57.427Z,100681.50
2023-02-01T06:10:00.100Z,100694.94
2023-02-01T06:13:04.902Z,100692.25
2023-02-01T06:16:08.916Z,100696.75
2023-02-01T06:19:11.616Z,100689.50
2023-02-01T06:22:14.383Z,100697.56
2023-02-01T06:25:17.764Z,100683.16
2023-02-01T06:28:22.606Z,100676.00
2023-02-01T06:31:26.245Z,100684.03
2023-02-01T06:34:29.099Z,100677.72
2023-02-01T06:37:31.776Z,100686.63
2023-02-01T06:40:34.568Z,100691.06
2023-02-01T06:43:38.957Z,100694.59
2023-02-01T06:46:42.238Z,100693.81
2023-02-01T06:49:44.945Z,100683.94
2023-02-01T06:52:47.990Z,100683.94
2023-02-01T06:55:55.317Z,100696.50
2023-02-01T06:58:59.378Z,100704.41
2023-02-01T07:02:02.045Z,100694.53
2023-02-01T07:05:05.436Z,100687.38
2023-02-01T07:08:08.571Z,100692.78
2023-02-01T07:11:13.372Z,100685.56
2023-02-01T07:14:17.549Z,100681.88
2023-02-01T07:17:20.226Z,100676.59
2023-02-01T07:20:23.347Z,100692.63
2023-02-01T07:23:26.815Z,100719.38
2023-02-01T07:26:29.484Z,100740.88
2023-02-01T07:29:33.767Z,100763.25
2023-02-01T07:32:36.524Z,100745.41
2023-02-01T07:35:39.379Z,100744.69
2023-02-01T07:38:42.088Z,100710.78
2023-02-01T07:41:44.868Z,100731.63
2023-02-01T07:44:48.863Z,100707.63
2023-02-01T07:47:53.995Z,100709.53
2023-02-01T07:51:00.595Z,100720.28
2023-02-01T07:54:03.650Z,100711.44
2023-02-01T07:57:06.280Z,100719.47
2023-02-01T08:00:29.395Z,100734.03
2023-02-01T08:03:32.098Z,100737.69
2023-02-01T08:06:36.009Z,100741.34
2023-02-01T08:09:38.673Z,100743.13
2023-02-01T08:12:42.764Z,100732.47
2023-02-01T08:15:46.795Z,100742.13
2023-02-01T08:18:49.564Z,100751.03
2023-02-01T08:21:52.245Z,100742.00
2023-02-01T08:25:02.184Z,100748.13
2023-02-01T08:28:05.123Z,100745.44
2023-02-01T08:31:11.750Z,100734.56
2023-02-01T08:34:14.401Z,100741.56
2023-02-01T08:37:17.087Z,100754.72
2023-02-01T08:40:20.246Z,100761.81
2023-02-01T08:43:22.935Z,100759.81
2023-02-01T08:46:27.385Z,100770.41
2023-02-01T08:49:30.083Z,100763.09
2023-02-01T08:52:32.893Z,100765.69
2023-02-01T08:55:35.554Z,100771.66
2023-02-01T08:58:38.360Z,100768.69
2023-02-01T09:01:43.096Z,100769.38
2023-02-01T09:04:45.918Z,100767.31
2023-02-01T09:07:48.588Z,100766.28
2023-02-01T09:10:51.446Z,100766.06
2023-02-01T09:13:54.204Z,100762.31
2023-02-01T09:16:58.284Z,100762.28
2023-02-01T09:20:00.998Z,100764.00
2023-02-01T09:23:03.651Z,100763.00
2023-02-01T09:26:07.875Z,100761.91
2023-02-01T09:29:12.066Z,100763.59
2023-02-01T09:32:16.203Z,100764.38
2023-02-01T09:35:19.015Z,100764.38
2023-02-01T09:38:21.753Z,100776.72
2023-02-01T09:41:45.153Z,100771.13
2023-02-01T09:45:01.590Z,100786.06
2023-02-01T09:48:15.275Z,100788.56
2023-02-01T09:51:24.424Z,100776.69
2023-02-01T09:54:30.851Z,100799.81
2023-02-01T09:57:47.730Z,100821.50
2023-02-01T10:00:54.335Z,100812.47
2023-02-01T10:04:04.620Z,100820.69
2023-02-01T10:07:15.611Z,100821.88
2023-02-01T10:10:27.624Z,100838.13
2023-02-01T10:13:47.663Z,100829.25
2023-02-01T10:16:56.402Z,100838.44
2023-02-01T10:20:10.030Z,100817.13
2023-02-01T10:23:34.435Z,100845.03
2023-02-01T10:26:40.102Z,100821.91
2023-02-01T10:29:46.871Z,100804.66
2023-02-01T10:32:54.037Z,100811.59
2023-02-01T10:36:05.873Z,100810.69
2023-02-01T10:39:13.082Z,100815.28
2023-02-01T10:42:16.044Z,100802.06
2023-02-01T10:45:21.370Z,100804.66
2023-02-01T10:48:25.180Z,100801.03
2023-02-01T10:51:32.758Z,100785.28
2023-02-01T10:54:39.264Z,100780.09
2023-02-01T10:57:42.060Z,100781.88
2023-02-01T11:00:48.492Z,100766.03
2023-02-01T11:03:57.403Z,100766.16
2023-02-01T11:07:14.472Z,100760.94
2023-02-01T11:10:37.017Z,100761.69
2023-02-01T11:13:41.776Z,100762.47
2023-02-01T11:16:50.739Z,100757.72
2023-02-01T11:19:59.491Z,100753.16
2023-02-01T11:23:04.460Z,100749.25
2023-02-01T11:26:13.646Z,100734.75
2023-02-01T11:29:21.354Z,100738.50
2023-02-01T11:32:26.347Z,100729.34
2023-02-01T11:35:32.523Z,100706.69
2023-02-01T11:38:36.885Z,100720.97
2023-02-01T11:41:44.662Z,100724.25
2023-02-01T11:44:48.611Z,100720.63
2023-02-01T11:47:54.895Z,100715.03
2023-02-01T11:51:16.018Z,100725.50
2023-02-01T11:54:32.260Z,100723.59
2023-02-01T11:57:49.075Z,100729.84
2023-02-01T12:01:07.278Z,100715.72
2023-02-01T12:04:49.475Z,100717.47
2023-02-01T12:08:04.851Z,100707.81
2023-02-01T12:11:25.009Z,100708.78
2023-02-01T12:14:41.357Z,100708.94
2023-02-01T12:18:00.830Z,100702.69
2023-02-01T12:21:08.662Z,100705.47
2023-02-01T12:24:47.002Z,100704.63
2023-02-01T12:28:17.960Z,100698.28
2023-02-01T12:31:32.706Z,100700.78
2023-02-01T12:34:52.765Z,100682.47
2023-02-01T12:38:08.119Z,100681.84
2023-02-01T12:41:23.892Z,100654.66
2023-02-01T12:44:34.661Z,100671.81
2023-02-01T12:47:42.324Z,100677.25
2023-02-01T12:50:49.644Z,100675.66
2023-02-01T12:53:54.625Z,100677.56
2023-02-01T12:57:03.350Z,100672.16
2023-02-01T13:00:24.664Z,100666.78
2023-02-01T13:03:36.633Z,100662.25
2023-02-01T13:06:44.501Z,100663.09
2023-02-01T13:09:53.490Z,100654.22
2023-02-01T13:13:01.738Z,100644.28
2023-02-01T13:16:18.146Z,100642.38
2023-02-01T13:19:26.661Z,100616.38
2023-02-01T13:22:34.027Z,100643.19
2023-02-01T13:25:41.907Z,100625.97
2023-02-01T13:28:48.342Z,100616.16
2023-02-01T13:32:18.181Z,100618.19
2023-02-01T13:35:37.761Z,100611.69
2023-02-01T13:39:27.506Z,100615.31
2023-02-01T13:42:33.565Z,100616.56
2023-02-01T13:45:43.878Z,100621.22
2023-02-01T13:48:52.500Z,100611.50
2023-02-01T13:51:57.405Z,100612.50
2023-02-01T13:55:15.856Z,100608.94
2023-02-01T13:58:22.039Z,100616.16
2023-02-01T14:01:37.077Z,100614.63
2023-02-01T14:04:52.347Z,100611.75
2023-02-01T14:08:13.773Z,100614.63
2023-02-01T14:11:42.667Z,100626.22
2023-02-01T14:14:47.343Z,100617.31
2023-02-01T14:17:50.350Z,100626.28
2023-02-01T14:21:24.095Z,100624.78
2023-02-01T14:24:29.667Z,100619.28
2023-02-01T14:27:37.927Z,100611.44
2023-02-01T14:30:44.449Z,100621.13
2023-02-01T14:33:48.180Z,100629.03
2023-02-01T14:37:00.503Z,100631.91
2023-02-01T14:40:07.238Z,100640.81
2023-02-01T14:43:32.595Z,100632.56
2023-02-01T14:47:06.588Z,100625.53
2023-02-01T14:50:27.168Z,100643.53
2023-02-01T14:53:39.201Z,100603.41
2023-02-01T14:56:42.340Z,100629.94
2023-02-01T14:59:47.329Z,100614.88
2023-02-01T15:02:51.668Z,100626.31
2023-02-01T15:05:59.378Z,100629.06
2023-02-01T15:09:09.747Z,100614.88
2023-02-01T15:12:21.342Z,100619.31
2023-02-01T15:15:27.333Z,100618.34
2023-02-01T15:18:30.302Z,100608.50
2023-02-01T15:21:33.352Z,100602.19
2023-02-01T15:24:37.384Z,100610.19
2023-02-01T15:27:40.239Z,100604.81
2023-02-01T15:30:54.686Z,100578.06
2023-02-01T15:34:00.601Z,100594.16
2023-02-01T15:37:07.146Z,100583.44
2023-02-01T15:40:25.062Z,100579.09
2023-02-01T15:43:29.927Z,100588.03
2023-02-01T15:46:36.607Z,100589.91
2023-02-01T15:49:42.145Z,100597.09
2023-02-01T15:52:45.249Z,100588.28
2023-02-01T15:55:53.731Z,100599.03
2023-02-01T15:59:00.367Z,100592.81
2023-02-01T16:02:03.889Z,100603.66
2023-02-01T16:05:08.706Z,100585.78
2023-02-01T16:08:14.928Z,100587.56
2023-02-01T16:11:28.511Z,100592.06
2023-02-01T16:14:32.908Z,100587.75
2023-02-01T16:17:35.572Z,100591.19
2023-02-01T16:20:40.062Z,100593.91
2023-02-01T16:23:42.741Z,100593.97
2023-02-01T16:26:46.892Z,100595.69
2023-02-01T16:29:49.693Z,100595.72
2023-02-01T16:32:55.869Z,100581.34
2023-02-01T16:36:01.228Z,100600.22
2023-02-01T16:39:04.647Z,100601.06
2023-02-01T16:42:13.851Z,100593.16
2023-02-01T16:45:16.538Z,100592.06
2023-02-01T16:48:23.890Z,100601.13
2023-02-01T16:51:30.103Z,100604.72
2023-02-01T16:54:32.806Z,100609.13
2023-02-01T16:57:36.789Z,100620.78
2023-02-01T17:00:39.607Z,100618.09
2023-02-01T17:03:44.127Z,100619.91
2023-02-01T17:06:50.758Z,100612.72
2023-02-01T17:09:53.436Z,100624.31
2023-02-01T17:12:58.482Z,100621.59
2023-02-01T17:16:04.697Z,100625.19
2023-02-01T17:19:12.141Z,100602.84
2023-02-01T17:22:15.727Z,100603.63
2023-02-01T17:25:20.208Z,100601.94
2023-02-01T17:28:24.941Z,100602.75
2023-02-01T17:31:27.785Z,100588.75
2023-02-01T17:34:32.407Z,100609.91
2023-02-01T17:37:36.628Z,100598.25
2023-02-01T17:40:39.848Z,100612.56
2023-02-01T17:43:44.795Z,100595.53
2023-02-01T17:46:47.546Z,100599.13
2023-02-01T17:49:56.824Z,100597.28
2023-02-01T17:52:59.741Z,100595.50
2023-02-01T17:56:02.572Z,100611.66
2023-02-01T17:59:06.772Z,100601.72
2023-02-01T18:02:19.815Z,100597.28
2023-02-01T18:05:26.332Z,100604.34
2023-02-01T18:08:33.297Z,100608.13
2023-02-01T18:11:36.272Z,100600.91
2023-02-01T18:14:40.305Z,100606.44
2023-02-01T18:17:42.987Z,100606.50
2023-02-01T18:20:47.199Z,100610.06
2023-02-01T18:23:50.515Z,100618.91
2023-02-01T18:26:53.237Z,100596.38
2023-02-01T18:29:57.357Z,100613.44
2023-02-01T18:33:00.355Z,100606.22
2023-02-01T18:36:03.415Z,100593.66
2023-02-01T18:39:06.150Z,100604.44
2023-02-01T18:42:11.955Z,100593.56
2023-02-01T18:45:25.952Z,100586.91
2023-02-01T18:48:28.787Z,100592.66
2023-02-01T18:51:31.391Z,100588.19
2023-02-01T18:54:34.061Z,100577.34
2023-02-01T18:57:37.695Z,100581.81
2023-02-01T19:00:41.663Z,100598.88
2023-02-01T19:03:48.161Z,100586.28
2023-02-01T19:06:55.757Z,100608.75
2023-02-01T19:09:58.809Z,100613.31
2023-02-01T19:13:02.078Z,100606.13
2023-02-01T19:16:09.591Z,100606.22
2023-02-01T19:19:12.304Z,100620.59
2023-02-01T19:22:15.079Z,100612.69
2023-02-01T19:25:20.818Z,100625.00
2023-02-01T19:28:24.100Z,100632.22
2023-02-01T19:31:28.399Z,100625.75
2023-02-01T19:34:31.624Z,100623.16
2023-02-01T19:37:34.305Z,100631.22
2023-02-01T19:40:36.956Z,100608.75
2023-02-01T19:43:39.999Z,100613.22
2023-02-01T19:46:44.031Z,100634.81
2023-02-01T19:49:46.820Z,100629.38
2023-02-01T19:52:49.627Z,100627.59
2023-02-01T19:55:52.291Z,100621.31
2023-02-01T19:58:55.344Z,100635.69
2023-02-01T20:01:58.460Z,100623.88
2023-02-01T20:05:01.359Z,100612.28
2023-02-01T20:08:04.035Z,100615.81
2023-02-01T20:11:07.674Z,100622.97
2023-02-01T20:14:10.618Z,100621.13
2023-02-01T20:17:17.663Z,100631.91
2023-02-01T20:20:20.772Z,100615.22
2023-02-01T20:23:23.496Z,100630.97
2023-02-01T20:26:27.140Z,100656.16
2023-02-01T20:29:29.756Z,100622.13
2023-02-01T20:32:35.228Z,100617.72
2023-02-01T20:35:37.859Z,100649.13
2023-02-01T20:38:40.546Z,100658.97
2023-02-01T20:41:43.622Z,100646.50
2023-02-01T20:44:46.217Z,100648.28
2023-02-01T20:47:52.672Z,100657.22
2023-02-01T20:50:56.211Z,100655.31
2023-02-01T20:53:58.844Z,100658.91
2023-02-01T20:57:01.893Z,100642.06
2023-02-01T21:00:08.059Z,100634.75
2023-02-01T21:03:12.102Z,100645.50
2023-02-01T21:06:14.738Z,100635.75
2023-02-01T21:09:17.799Z,100635.44
2023-02-01T21:12:20.809Z,100643.75
2023-02-01T21:15:26.278Z,100626.50
2023-02-01T21:18:32.096Z,100647.94
2023-02-01T21:21:34.993Z,100632.91
2023-02-01T21:24:37.662Z,100647.22
2023-02-01T21:27:40.327Z,100656.16
2023-02-01T21:30:42.964Z,100653.47
2023-02-01T21:33:47.668Z,100646.25
2023-02-01T21:36:50.290Z,100653.31
2023-02-01T21:39:53.108Z,100659.59
2023-02-01T21:42:55.773Z,100660.53
2023-02-01T21:45:58.495Z,100663.09
2023-02-01T21:49:04.627Z,100662.28
2023-02-01T21:52:08.773Z,100682.00
2023-02-01T21:55:11.673Z,100682.00
2023-02-01T21:58:14.300Z,100674.72
2023-02-01T22:01:17.066Z,100675.69
2023-02-01T22:04:21.116Z,100664.88
2023-02-01T22:07:23.837Z,100660.47
2023-02-01T22:10:26.460Z,100681.06
2023-02-01T22:13:29.293Z,100672.13
2023-02-01T22:16:32.120Z,100679.28
2023-02-01T22:19:36.162Z,100690.06
2023-02-01T22:22:38.874Z,100675.63
2023-02-01T22:25:41.505Z,100682.81
2023-02-01T22:28:44.852Z,100677.53
2023-02-01T22:31:47.960Z,100680.91
2023-02-01T22:34:52.020Z,100689.97
2023-02-01T22:37:54.627Z,100679.09
2023-02-01T22:40:58.073Z,100680.91
2023-02-01T22:44:02.168Z,100683.72
2023-02-01T22:47:05.021Z,100678.25
2023-02-01T22:50:10.567Z,100683.56
2023-02-01T22:53:13.562Z,100679.97
2023-02-01T22:56:17.214Z,100678.16
2023-02-01T22:59:20.047Z,100682.66
2023-02-01T23:02:22.691Z,100665.56
2023-02-01T23:05:27.271Z,100686.16
2023-02-01T23:08:30.124Z,100679.13
2023-02-01T23:11:32.856Z,100665.47
2023-02-01T23:14:55.532Z,100658.31
2023-02-01T23:17:58.309Z,100675.44
2023-02-01T23:21:06.200Z,100654.78
2023-02-01T23:24:10.774Z,100661.81
2023-02-01T23:27:13.407Z,100665.41
2023-02-01T23:30:16.817Z,100665.38
2023-02-01T23:33:23.234Z,100677.28
2023-02-01T23:36:28.795Z,100677.22
2023-02-01T23:39:33.104Z,100711.41
2023-02-01T23:42:36.082Z,100699.09
2023-02-01T23:45:38.760Z,100696.31
2023-02-01T23:48:41.368Z,100714.53
2023-02-01T23:51:47.474Z,100724.50
2023-02-01T23:54:50.136Z,100720.09
2023-02-01T23:57:52.750Z,100732.88
